Latest Weather Observations for Williamtown

IDN60901

Issued at 7:51 am EDT Wednesday 10 February 2016 (issued every 10 minutes, with the page automatically refreshed every 10 minutes)

About weather observations | Map of Sydney area stations | Latest observations for Sydney area | Other Formats
Station Details ID: 061078 Name: WILLIAMTOWN RAAF Lat: -32.79 Lon: 151.84 Height: 9.0 m
Data from the previous 72 hours. | See also: Recent months at Williamtown
Date/Time
EDT
Tmp

°C
App
Tmp
°C
Dew
Point
°C
Rel
Hum
%
Delta-T

°C
Wind Press
QNH
hPa
Press
MSL
hPa
Rain
since
9 am
mm
Dir
 
Spd
km/h
Gust
km/h
Spd
kts
Gust
kts
10/07:30am 18.7 19.8 18.0 96 0.4 WNW 9 11 5 6 1016.6 1016.5 0.0
10/07:00am 17.4 18.4 16.9 97 0.3 WNW 7 7 4 4 1016.5 1016.4 0.0
10/06:30am 16.8 18.8 16.1 96 0.4 CALM 0 0 0 0 1016.4 1016.3 0.0
10/06:00am 16.7 18.8 16.2 97 0.3 CALM 0 0 0 0 1016.3 1016.2 0.0
10/05:30am 17.1 19.3 16.6 97 0.3 CALM 0 6 0 3 1016.2 1016.1 0.0
10/05:00am 17.5 18.8 17.0 97 0.3 NW 6 7 3 4 1016.0 1015.9 0.0
10/04:30am 17.6 19.7 17.1 97 0.3 WNW 2 7 1 4 1016.0 1015.9 0.0
10/04:00am 18.1 19.5 17.4 96 0.4 WNW 6 7 3 4 1016.0 1015.9 0.0
10/03:30am 17.8 20.2 17.0 95 0.5 CALM 0 0 0 0 1016.2 1016.1 0.0
10/03:00am 18.3 20.9 17.5 95 0.5 CALM 0 0 0 0 1016.5 1016.4 0.0
10/02:30am 18.8 21.5 17.8 94 0.6 CALM 0 0 0 0 1016.7 1016.6 0.0
10/02:00am 18.9 21.7 17.9 94 0.6 CALM 0 0 0 0 1017.0 1016.9 0.0
10/01:30am 19.2 22.1 18.1 93 0.7 CALM 0 0 0 0 1017.3 1017.2 0.0
10/01:00am 19.8 22.4 17.5 86 1.4 CALM 0 0 0 0 1017.6 1017.5 0.0
10/12:30am 21.0 22.4 17.8 82 2.0 E 7 9 4 5 1017.9 1017.8 0.0
10/12:00am 21.5 22.6 17.9 80 2.2 ENE 9 15 5 8 1018.3 1018.2 0.0
 
Date/Time
EDT
Tmp

°C
App
Tmp
°C
Dew
Point
°C
Rel
Hum
%
Delta-T

°C
Wind Press
QNH
hPa
Press
MSL
hPa
Rain
since
9 am
mm
Dir
 
Spd
km/h
Gust
km/h
Spd
kts
Gust
kts
09/11:30pm 22.0 22.7 18.0 78 2.5 ENE 11 15 6 8 1018.6 1018.5 0.0
09/11:00pm 21.2 23.7 19.1 88 1.3 S 4 9 2 5 1018.8 1018.7 0.0
09/10:30pm 20.6 22.4 18.3 87 1.4 WNW 6 7 3 4 1019.0 1018.9 0.0
09/10:00pm 21.4 22.7 17.5 78 2.4 ESE 7 9 4 5 1019.1 1019.0 0.0
09/09:30pm 22.4 23.2 17.2 72 3.2 ESE 9 11 5 6 1019.1 1019.0 0.0
09/09:00pm 22.6 23.0 17.2 71 3.3 ESE 11 15 6 8 1018.9 1018.8 0.0
09/08:30pm 22.3 23.7 18.6 79 2.3 SE 9 13 5 7 1018.7 1018.6 0.0
09/08:00pm 22.5 23.5 18.7 79 2.4 SSE 11 13 6 7 1018.8 1018.7 0.0
09/07:30pm 23.3 23.5 18.5 74 3.0 SE 15 19 8 10 1018.6 1018.5 0.0
09/07:00pm 24.2 24.1 17.8 67 4.0 SSE 15 19 8 10 1018.4 1018.3 0.0
09/06:30pm 24.6 24.1 17.7 65 4.3 SSE 17 24 9 13 1018.2 1018.1 0.0
09/06:00pm 25.1 24.4 17.4 62 4.8 SSE 17 22 9 12 1018.1 1018.0 0.0
09/05:30pm 25.2 24.2 17.5 62 4.8 SSE 19 26 10 14 1018.1 1018.0 0.0
09/05:00pm 24.6 22.9 18.2 67 4.0 SSE 24 30 13 16 1018.4 1018.3 0.0
09/04:30pm 26.4 25.2 18.5 62 5.0 SSE 22 32 12 17 1018.4 1018.3 0.0
09/04:00pm 25.9 24.7 17.4 59 5.3 SSE 20 30 11 16 1018.6 1018.5 0.0
09/03:30pm 26.4 26.0 18.0 60 5.3 SSE 17 26 9 14 1018.8 1018.7 0.0
09/03:00pm 26.2 25.6 18.5 62 4.9 S 19 28 10 15 1019.0 1018.9 0.0
09/02:30pm 26.1 25.1 18.0 61 5.1 S 20 32 11 17 1019.4 1019.3 0.0
09/02:00pm 26.3 25.0 17.3 57 5.6 SSE 20 30 11 16 1019.6 1019.5 0.0
09/01:30pm 26.8 25.3 16.8 54 6.2 SSE 20 30 11 16 1019.8 1019.7 0.0
09/01:00pm 26.5 24.9 16.4 53 6.2 SE 20 32 11 17 1020.0 1019.9 0.0
09/12:30pm 26.4 25.4 16.7 55 6.0 SE 17 28 9 15 1020.3 1020.2 0.0
09/12:00pm 26.1 24.9 16.1 54 6.1 SSE 17 22 9 12 1020.3 1020.2 0.0
09/11:30am 26.1 24.7 16.9 57 5.7 SE 20 30 11 16 1020.5 1020.4 0.0
09/11:00am 26.1 24.3 16.9 57 5.7 SE 22 30 12 16 1020.5 1020.4 0.0
09/10:30am 25.8 23.7 16.3 55 5.8 SE 22 32 12 17 1020.5 1020.4 0.0
09/10:00am 25.5 23.5 16.4 57 5.6 SSE 22 32 12 17 1020.4 1020.3 0.0
09/09:30am 25.2 22.3 17.1 60 5.0 SE 28 33 15 18 1020.3 1020.2 0.0
09/09:00am 24.0 22.1 17.6 67 4.0 SSE 24 32 13 17 1020.1 1020.0 0.0
09/08:30am 23.1 23.0 17.8 72 3.3 S 15 20 8 11 1019.9 1019.8 0.0
09/08:00am 20.9 22.8 19.8 93 0.7 W 9 11 5 6 1019.6 1019.5 0.0
09/07:30am 20.0 21.3 19.4 96 0.4 WNW 11 13 6 7 1019.5 1019.4 0.0
09/07:00am 19.3 20.7 18.7 96 0.4 NW 9 13 5 7 1019.0 1018.9 0.0
09/06:30am 19.0 20.3 18.5 97 0.3 NW 9 11 5 6 1018.6 1018.5 0.0
09/06:00am 18.5 19.6 18.0 97 0.3 NW 9 13 5 7 1018.4 1018.3 0.0
09/05:30am 18.5 19.6 18.0 97 0.3 NW 9 9 5 5 1018.1 1018.0 0.0
09/05:00am 18.6 20.1 18.1 97 0.3 NW 7 9 4 5 1017.9 1017.8 0.0
09/04:30am 18.8 20.0 18.3 97 0.3 NW 9 11 5 6 1017.8 1017.7 0.0
09/04:00am 19.2 20.6 18.7 97 0.3 WNW 9 9 5 5 1017.7 1017.6 0.0
09/03:30am 19.3 21.1 18.7 96 0.4 WNW 7 9 4 5 1017.8 1017.7 0.0
09/03:00am 19.7 21.3 19.2 97 0.3 NW 9 11 5 6 1018.0 1017.9 0.0
09/02:30am 20.3 22.1 19.5 95 0.5 WNW 9 11 5 6 1018.0 1017.9 0.0
09/02:00am 20.3 23.8 19.5 95 0.5 CALM 0 0 0 0 1018.2 1018.1 0.0
09/01:30am 20.1 22.2 19.3 95 0.5 W 7 9 4 5 1018.4 1018.3 0.0
09/01:00am 20.0 21.9 19.0 94 0.6 WNW 7 9 4 5 1018.6 1018.5 0.0
09/12:30am 20.0 22.0 19.2 95 0.5 WNW 7 7 4 4 1018.7 1018.6 0.0
09/12:00am 20.1 23.4 19.1 94 0.6 CALM 0 0 0 0 1018.8 1018.7 0.0
 
Date/Time
EDT
Tmp

°C
App
Tmp
°C
Dew
Point
°C
Rel
Hum
%
Delta-T

°C
Wind Press
QNH
hPa
Press
MSL
hPa
Rain
since
9 am
mm
Dir
 
Spd
km/h
Gust
km/h
Spd
kts
Gust
kts
08/11:30pm 20.4 23.9 19.5 95 0.6 CALM 0 0 0 0 1018.9 1018.8 0.0
08/11:00pm 20.6 22.6 19.2 92 0.9 SW 7 9 4 5 1019.0 1018.9 0.0
08/10:30pm 20.8 22.9 19.4 92 0.9 SSW 7 7 4 4 1018.9 1018.8 0.0
08/10:00pm 21.4 23.6 19.7 90 1.1 SSW 7 7 4 4 1018.8 1018.7 0.0
08/09:30pm 21.7 23.6 19.7 88 1.3 S 9 11 5 6 1018.6 1018.5 0.0
08/09:00pm 22.0 24.0 20.0 88 1.3 S 9 13 5 7 1018.3 1018.2 0.0
08/08:30pm 22.2 23.8 20.0 87 1.4 SSW 11 11 6 6 1018.1 1018.0 0.0
08/08:00pm 23.0 24.2 20.0 83 1.9 S 13 15 7 8 1018.0 1017.9 0.0
08/07:30pm 23.8 24.6 19.8 78 2.6 S 15 20 8 11 1017.8 1017.7 0.0
08/07:00pm 24.6 25.1 20.0 75 3.0 S 17 24 9 13 1017.6 1017.5 0.0
08/06:30pm 24.7 24.8 19.2 71 3.5 S 17 24 9 13 1017.3 1017.2 0.0
08/06:00pm 25.4 25.0 19.3 69 3.9 S 20 26 11 14 1017.4 1017.3 0.0
08/05:30pm 25.7 24.0 17.2 59 5.3 SSE 22 30 12 16 1017.2 1017.1 0.0
08/05:00pm 26.2 25.1 17.8 60 5.3 SSE 20 28 11 15 1017.4 1017.3 0.0
08/04:30pm 26.0 25.1 18.1 61 5.0 SSE 20 30 11 16 1017.4 1017.3 0.0
08/04:00pm 25.7 24.3 17.9 62 4.9 SSE 22 30 12 16 1017.5 1017.4 0.0
08/03:30pm 25.5 25.0 19.1 67 4.1 SSE 20 32 11 17 1017.5 1017.4 0.0
08/03:00pm 26.3 25.0 19.1 64 4.6 SSE 24 35 13 19 1017.6 1017.5 0.0
08/02:30pm 25.7 24.4 19.1 67 4.2 SSE 24 33 13 18 1017.8 1017.7 0.0
08/02:00pm 25.9 26.2 19.7 68 4.0 SSE 17 26 9 14 1018.1 1018.0 0.0
08/01:30pm 26.5 25.1 18.8 62 4.9 S 24 32 13 17 1018.3 1018.2 0.0
08/01:00pm 26.0 24.8 19.3 66 4.3 SSE 24 35 13 19 1018.5 1018.4 0.0
08/12:30pm 26.0 25.6 19.3 66 4.3 S 20 30 11 16 1018.6 1018.5 0.0
08/12:00pm 25.6 25.3 19.5 69 3.9 SSE 20 28 11 15 1018.8 1018.7 0.0
08/11:30am 25.1 24.7 19.3 70 3.7 SSE 20 28 11 15 1018.9 1018.8 0.0
08/11:00am 25.5 25.1 18.0 63 4.7 SSE 17 26 9 14 1018.8 1018.7 0.0
08/10:30am 23.9 23.4 20.0 79 2.5 SSE 22 28 12 15 1018.9 1018.8 0.0
08/10:00am 23.5 24.3 19.8 80 2.4 S 15 20 8 11 1018.8 1018.7 0.0
08/09:30am 22.5 23.2 20.5 88 1.3 SSW 17 28 9 15 1018.7 1018.6 0.0
08/09:00am 21.2 22.5 20.1 93 0.7 WSW 13 17 7 9 1018.6 1018.5 0.6
08/08:48am 20.8 21.4 19.5 92 0.8 SW 15 22 8 12 1018.6 1018.5 0.6
08/08:30am 21.1 21.9 19.0 88 1.3 WSW 13 15 7 8 1018.4 1018.3 0.0
08/08:00am 20.3 20.7 18.2 88 1.3 W 13 15 7 8 1018.3 1018.2 0.0
08/07:30am 19.4 19.7 17.8 90 1.0 W 13 17 7 9 1018.0 1017.9 0.0
08/07:00am 18.7 19.5 17.4 92 0.8 W 9 11 5 6 1017.8 1017.7 0.0
08/06:30am 18.3 19.0 17.1 93 0.7 W 9 11 5 6 1017.5 1017.4 0.0
08/06:00am 18.4 18.4 17.1 92 0.8 WNW 13 17 7 9 1017.1 1017.0 0.0
08/05:30am 18.2 18.9 17.0 93 0.7 WNW 9 13 5 7 1017.1 1017.0 0.0
08/05:00am 18.1 18.0 16.9 93 0.7 NW 13 13 7 7 1016.9 1016.8 0.0
08/04:30am 18.0 18.3 17.0 94 0.6 NW 11 13 6 7 1017.0 1016.9 0.0
08/04:00am 18.1 18.9 17.3 95 0.5 NW 9 11 5 6 1017.0 1016.9 0.0
08/03:30am 18.0 18.4 17.2 95 0.5 NW 11 13 6 7 1017.1 1017.0 0.0
08/03:00am 18.3 18.3 17.1 93 0.7 NW 13 15 7 8 1017.2 1017.1 0.0
08/02:30am 18.7 19.1 17.2 91 0.9 WNW 11 13 6 7 1017.4 1017.3 0.0
08/02:00am 18.9 19.4 17.4 91 0.9 NW 11 13 6 7 1017.7 1017.6 0.0
08/01:30am 18.6 19.4 17.4 93 0.7 WNW 9 11 5 6 1017.9 1017.8 0.0
08/01:00am 18.4 19.5 17.2 93 0.7 WNW 7 7 4 4 1018.0 1017.9 0.0
08/12:30am 18.3 19.4 17.0 92 0.8 WNW 7 9 4 5 1018.2 1018.1 0.0
08/12:00am 18.6 19.8 17.4 93 0.7 WNW 7 9 4 5 1018.1 1018.0 0.0
 
Date/Time
EDT
Tmp

°C
App
Tmp
°C
Dew
Point
°C
Rel
Hum
%
Delta-T

°C
Wind Press
QNH
hPa
Press
MSL
hPa
Rain
since
9 am
mm
Dir
 
Spd
km/h
Gust
km/h
Spd
kts
Gust
kts
07/11:30pm 18.8 21.5 17.7 93 0.7 CALM 0 0 0 0 1018.1 1018.0 0.0
07/11:00pm 19.4 22.2 17.9 91 0.9 CALM 0 0 0 0 1018.3 1018.2 0.0
07/10:30pm 19.9 22.8 18.1 89 1.1 CALM 0 0 0 0 1018.3 1018.2 0.0
07/10:00pm 20.0 22.9 18.2 89 1.1 CALM 0 0 0 0 1018.3 1018.2 0.0
07/09:30pm 20.4 22.6 17.5 83 1.8 SSE 2 7 1 4 1018.1 1018.0 0.0
07/09:00pm 20.9 22.2 17.6 81 2.0 SE 7 7 4 4 1017.8 1017.7 0.0
07/08:30pm 21.2 22.6 17.8 81 2.1 SSE 7 7 4 4 1017.4 1017.3 0.0
07/08:00pm 22.5 23.6 17.1 71 3.3 ESE 7 9 4 5 1017.2 1017.1 0.0
07/07:30pm 23.1 23.4 17.1 69 3.7 SE 11 13 6 7 1016.9 1016.8 0.0
07/07:00pm 23.8 23.6 16.8 65 4.3 SE 13 19 7 10 1016.6 1016.5 0.0
07/06:30pm 24.2 23.1 16.3 61 4.8 SE 17 20 9 11 1016.2 1016.1 0.0
07/06:00pm 24.7 24.0 16.5 60 5.0 SE 15 24 8 13 1016.1 1016.0 0.0
07/05:30pm 24.8 23.2 16.1 58 5.3 SE 19 26 10 14 1016.0 1015.9 0.0
07/05:00pm 24.8 23.2 16.1 58 5.3 ESE 19 28 10 15 1016.0 1015.9 0.0
07/04:30pm 24.8 23.2 15.9 57 5.4 SE 19 24 10 13 1016.0 1015.9 0.0
07/04:00pm 25.1 23.6 16.3 58 5.4 ESE 19 26 10 14 1016.1 1016.0 0.0
07/03:30pm 25.2 22.9 15.8 56 5.7 SE 22 30 12 16 1016.2 1016.1 0.0
07/03:00pm 25.3 23.3 15.5 54 5.9 SSE 20 30 11 16 1016.4 1016.3 0.0
07/02:30pm 25.3 23.5 15.5 54 5.9 ESE 19 28 10 15 1016.7 1016.6 0.0
07/02:00pm 25.7 23.9 15.6 53 6.1 SSE 19 26 10 14 1016.8 1016.7 0.0
07/01:30pm 25.4 24.0 15.5 54 6.0 SSE 17 26 9 14 1017.1 1017.0 0.0
07/01:00pm 24.3 22.4 15.1 56 5.5 SE 19 26 10 14 1017.3 1017.2 0.0
07/12:30pm 24.7 22.9 15.4 56 5.6 SE 19 26 10 14 1017.3 1017.2 0.0
07/12:00pm 24.0 22.0 14.9 56 5.4 ESE 19 26 10 14 1017.5 1017.4 0.0
07/11:30am 25.1 24.2 15.9 56 5.6 ESE 15 24 8 13 1017.6 1017.5 0.0
07/11:00am 24.3 23.0 15.7 58 5.2 SE 17 24 9 13 1017.9 1017.8 0.0
07/10:30am 24.8 24.3 15.9 57 5.4 ESE 13 17 7 9 1017.9 1017.8 0.0
07/10:00am 24.0 24.4 16.3 62 4.7 SSW 9 11 5 6 1017.9 1017.8 0.0
07/09:30am 22.8 24.0 16.9 69 3.6 W 6 9 3 5 1017.7 1017.6 0.0
07/09:00am 21.7 23.4 18.0 79 2.3 NW 6 7 3 4 1017.7 1017.6 0.2
07/08:30am 21.0 22.4 18.6 86 1.5 WNW 9 11 5 6 1017.7 1017.6 0.2
07/08:00am 19.7 20.2 18.4 92 0.8 NW 13 15 7 8 1017.5 1017.4 0.2

Latest Capital City Observations: Canberra | Sydney | Melbourne | Brisbane | Adelaide | Perth | Hobart | Darwin

Other Formats:

Comma delimited format used in spreadsheet applications
http://www.bom.gov.au/fwo/IDN60901/IDN60901.94776.axf

JavaScript Object Notation format (JSON) in row-major order
http://www.bom.gov.au/fwo/IDN60901/IDN60901.94776.json